createdAt,value
2022-08-05T00:00:54.894Z,100518.16
2022-08-05T00:03:21.441Z,100523.13
2022-08-05T00:06:06.404Z,100519.59
2022-08-05T00:08:36.276Z,100500.13
2022-08-05T00:11:20.776Z,100496.91
2022-08-05T00:13:54.902Z,100496.75
2022-08-05T00:16:36.226Z,100506.53
2022-08-05T00:19:08.535Z,100514.91
2022-08-05T00:21:35.965Z,100515.09
2022-08-05T00:24:10.125Z,100512.00
2022-08-05T00:26:39.231Z,100504.00
2022-08-05T00:29:17.588Z,100505.66
2022-08-05T00:32:09.391Z,100516.66
2022-08-05T00:34:54.740Z,100504.44
2022-08-05T00:37:18.087Z,100490.38
2022-08-05T00:39:58.489Z,100499.91
2022-08-05T00:42:35.601Z,100485.00
2022-08-05T00:45:08.583Z,100488.31
2022-08-05T00:47:57.103Z,100475.50
2022-08-05T00:50:22.242Z,100466.22
2022-08-05T00:52:52.215Z,100465.47
2022-08-05T00:55:20.053Z,100477.88
2022-08-05T01:48:17.275Z,100486.59
2022-08-05T01:50:51.010Z,100471.31
2022-08-05T01:53:55.248Z,100464.66
2022-08-05T01:56:09.321Z,100463.88
2022-08-05T01:58:44.717Z,100457.88
2022-08-05T02:01:25.292Z,100458.91
2022-08-05T02:03:55.458Z,100451.28
2022-08-05T02:06:37.066Z,100452.31
2022-08-05T02:09:06.081Z,100464.28
2022-08-05T02:11:42.195Z,100486.00
2022-08-05T02:14:12.118Z,100493.84
2022-08-05T02:16:44.814Z,100484.78
2022-08-05T02:19:18.825Z,100487.47
2022-08-05T02:21:51.053Z,100483.75
2022-08-05T02:24:23.198Z,100497.38
2022-08-05T02:26:54.853Z,100493.66
2022-08-05T02:29:58.153Z,100552.38
2022-08-05T02:32:23.722Z,100577.56
2022-08-05T02:35:01.989Z,100602.34
2022-08-05T02:37:38.666Z,100624.88
2022-08-05T02:40:09.499Z,100644.69
2022-08-05T02:42:37.611Z,100664.72
2022-08-05T02:45:05.477Z,100681.88
2022-08-05T02:48:07.282Z,100676.72
2022-08-05T02:50:24.919Z,100661.84
2022-08-05T02:52:52.947Z,100656.47
2022-08-05T02:55:51.983Z,100654.19
2022-08-05T02:58:20.023Z,100648.84
2022-08-05T03:00:47.945Z,100646.97
2022-08-05T03:03:18.843Z,100652.16
2022-08-05T03:06:55.096Z,100653.63
2022-08-05T03:08:35.899Z,100654.03
2022-08-05T03:11:55.638Z,100674.66
2022-08-05T03:13:52.019Z,100681.91
2022-08-05T03:16:29.707Z,100674.47
2022-08-05T03:18:58.174Z,100663.53
2022-08-05T03:21:28.915Z,100683.56
2022-08-05T03:24:00.446Z,100681.06
2022-08-05T03:26:31.659Z,100675.91
2022-08-05T03:28:59.609Z,100681.03
2022-08-05T03:31:55.420Z,100665.75
2022-08-05T03:34:13.668Z,100684.13
2022-08-05T03:36:42.239Z,100682.38
2022-08-05T03:39:12.819Z,100691.06
2022-08-05T03:41:46.730Z,100672.13
2022-08-05T03:44:13.580Z,100693.41
2022-08-05T03:46:46.805Z,100706.13
2022-08-05T03:49:13.534Z,100707.72
2022-08-05T03:52:50.493Z,100706.28
2022-08-05T03:55:07.196Z,100686.78
2022-08-05T03:57:42.337Z,100706.66
2022-08-05T04:00:15.924Z,100705.59
2022-08-05T04:02:57.532Z,100701.06
2022-08-05T04:05:33.753Z,100693.88
2022-08-05T04:08:22.464Z,100685.41
2022-08-05T04:10:53.117Z,100691.06
2022-08-05T04:13:19.709Z,100684.50
2022-08-05T04:16:02.945Z,100664.13
2022-08-05T04:18:32.083Z,100649.28
2022-08-05T04:20:58.711Z,100644.09
2022-08-05T04:23:58.437Z,100629.06
2022-08-05T04:26:15.327Z,100609.59
2022-08-05T04:28:51.356Z,100612.31
2022-08-05T04:31:19.159Z,100604.47
2022-08-05T04:34:17.165Z,100594.38
2022-08-05T04:36:45.098Z,100589.63
2022-08-05T04:39:14.645Z,100558.22
2022-08-05T04:41:41.221Z,100519.25
2022-08-05T04:44:09.274Z,100506.59
2022-08-05T04:46:36.873Z,100525.34
2022-08-05T04:49:03.571Z,100515.41
2022-08-05T04:51:30.399Z,100501.59
2022-08-05T04:53:57.420Z,100513.34
2022-08-05T04:56:35.106Z,100517.59
2022-08-05T04:59:22.059Z,100533.09
2022-08-05T05:02:07.505Z,100515.19
2022-08-05T05:04:38.494Z,100518.69
2022-08-05T05:07:11.120Z,100521.38
2022-08-05T05:09:38.096Z,100527.59
2022-08-05T05:12:06.792Z,100530.28
2022-08-05T05:14:36.288Z,100540.44
2022-08-05T05:17:03.689Z,100561.06
2022-08-05T05:19:36.262Z,100562.84
2022-08-05T05:22:22.623Z,100589.28
2022-08-05T05:24:57.758Z,100615.72
2022-08-05T05:27:44.888Z,100621.88
2022-08-05T05:30:28.841Z,100634.09
2022-08-05T05:33:00.531Z,100647.34
2022-08-05T05:35:31.536Z,100659.84
2022-08-05T05:38:05.482Z,100663.84
2022-08-05T05:40:32.607Z,100658.34
2022-08-05T05:43:02.345Z,100656.72
2022-08-05T05:45:29.401Z,100635.28
2022-08-05T05:48:06.659Z,100650.25
2022-08-05T05:50:35.635Z,100636.00
2022-08-05T05:53:22.147Z,100653.44
2022-08-05T05:55:51.526Z,100662.53
2022-08-05T05:58:31.814Z,100674.97
2022-08-05T06:01:12.454Z,100665.47
2022-08-05T06:04:00.613Z,100662.56
2022-08-05T06:06:28.145Z,100667.38
2022-08-05T06:08:57.926Z,100669.88
2022-08-05T06:11:24.627Z,100668.03
2022-08-05T06:13:55.516Z,100665.41
2022-08-05T06:16:29.110Z,100665.19
2022-08-05T06:19:01.268Z,100664.41
2022-08-05T06:21:35.900Z,100654.50
2022-08-05T06:24:06.092Z,100647.31
2022-08-05T06:26:35.116Z,100653.16
2022-08-05T06:29:23.782Z,100650.91
2022-08-05T06:31:50.794Z,100652.16
2022-08-05T06:34:20.032Z,100647.44
2022-08-05T06:36:56.995Z,100648.44
2022-08-05T06:39:26.849Z,100660.03
2022-08-05T06:41:53.993Z,100665.19
2022-08-05T06:44:22.199Z,100659.84
2022-08-05T06:46:50.942Z,100662.16
2022-08-05T06:49:18.759Z,100664.03
2022-08-05T06:51:48.255Z,100672.50
2022-08-05T06:54:18.252Z,100679.09
2022-08-05T06:56:54.829Z,100686.53
2022-08-05T06:59:38.481Z,100669.78
2022-08-05T07:02:05.830Z,100675.78
2022-08-05T07:04:32.593Z,100680.34
2022-08-05T07:06:59.722Z,100689.81
2022-08-05T07:09:26.329Z,100694.22
2022-08-05T07:12:00.427Z,100684.28
2022-08-05T07:14:29.406Z,100694.66
2022-08-05T07:18:00.457Z,100692.94
2022-08-05T07:22:31.912Z,100702.47
2022-08-05T07:24:59.752Z,100702.03
2022-08-05T07:27:58.206Z,100707.00
2022-08-05T07:30:32.776Z,100718.22
2022-08-05T07:33:08.979Z,100713.25
2022-08-05T07:36:05.228Z,100713.88
2022-08-05T07:38:26.458Z,100730.84
2022-08-05T07:41:16.607Z,100735.78
2022-08-05T07:43:46.596Z,100730.44
2022-08-05T07:46:24.791Z,100736.22
2022-08-05T07:49:01.615Z,100724.38
2022-08-05T07:51:48.615Z,100744.91
2022-08-05T07:54:21.658Z,100735.16
2022-08-05T07:57:14.516Z,100761.63
2022-08-05T07:59:40.963Z,100771.06
2022-08-05T08:02:15.517Z,100768.19
2022-08-05T08:04:46.351Z,100770.03
2022-08-05T08:07:13.386Z,100767.16
2022-08-05T08:09:40.079Z,100777.94
2022-08-05T08:12:17.195Z,100786.41
2022-08-05T08:14:53.713Z,100791.84
2022-08-05T08:17:21.349Z,100785.03
2022-08-05T08:20:21.495Z,100794.50
2022-08-05T08:22:36.249Z,100797.16
2022-08-05T08:25:15.773Z,100783.94
2022-08-05T08:27:47.471Z,100799.69
2022-08-05T08:30:32.583Z,100793.88
2022-08-05T08:33:08.220Z,100798.50
2022-08-05T08:35:41.056Z,100808.81
2022-08-05T08:38:08.707Z,100799.09
2022-08-05T08:40:46.650Z,100816.28
2022-08-05T08:45:17.683Z,100809.25
2022-08-05T08:46:06.380Z,100820.69
2022-08-05T08:49:02.916Z,100818.38
2022-08-05T08:52:03.940Z,100813.63
2022-08-05T08:54:19.050Z,100814.66
2022-08-05T08:56:47.807Z,100798.53
2022-08-05T08:59:19.356Z,100811.72
2022-08-05T09:01:57.049Z,100808.03
2022-08-05T09:04:30.704Z,100808.03
2022-08-05T09:06:59.143Z,100801.72
2022-08-05T09:09:34.608Z,100810.03
2022-08-05T09:12:14.424Z,100808.81
2022-08-05T09:14:58.822Z,100796.16
2022-08-05T09:17:42.577Z,100805.09
2022-08-05T09:20:11.255Z,100802.06
2022-08-05T09:23:07.973Z,100799.66
2022-08-05T09:26:01.064Z,100788.22
2022-08-05T09:28:32.435Z,100803.50
2022-08-05T09:31:02.649Z,100786.00
2022-08-05T09:33:51.280Z,100802.41
2022-08-05T09:36:21.588Z,100795.19
2022-08-05T09:39:00.730Z,100799.88
2022-08-05T09:41:32.885Z,100801.28
2022-08-05T09:44:04.891Z,100818.69
2022-08-05T09:46:35.108Z,100820.00
2022-08-05T09:49:06.711Z,100823.16
2022-08-05T09:51:37.510Z,100807.72
2022-08-05T09:54:06.758Z,100814.22
2022-08-05T09:56:35.151Z,100814.31
2022-08-05T09:59:04.879Z,100799.13
2022-08-05T10:01:33.992Z,100831.00
2022-08-05T10:04:03.961Z,100829.47
2022-08-05T10:06:31.185Z,100832.34
2022-08-05T10:09:25.627Z,100838.13
2022-08-05T10:11:55.489Z,100843.53
2022-08-05T10:14:24.560Z,100838.69
2022-08-05T10:16:54.967Z,100854.97
2022-08-05T10:19:46.209Z,100864.88
2022-08-05T10:22:15.711Z,100872.53
2022-08-05T10:24:58.281Z,100883.72
2022-08-05T10:27:26.321Z,100879.59
2022-08-05T10:32:02.956Z,100895.63
2022-08-05T10:33:01.770Z,100896.72
2022-08-05T10:35:40.337Z,100908.03
2022-08-05T10:38:08.529Z,100907.19
2022-08-05T10:40:44.982Z,100916.56
2022-08-05T10:43:31.030Z,100880.72
2022-08-05T10:46:06.742Z,100925.66
2022-08-05T10:48:52.713Z,100931.06
2022-08-05T10:51:23.178Z,100935.59
2022-08-05T10:54:01.597Z,100938.50
2022-08-05T10:56:44.474Z,100940.75
2022-08-05T11:00:03.194Z,100930.81
2022-08-05T11:02:14.085Z,100946.16
2022-08-05T11:04:57.113Z,100948.84
2022-08-05T11:07:33.150Z,100947.63
2022-08-05T11:10:21.642Z,100956.94
2022-08-05T11:12:50.543Z,100964.81
2022-08-05T11:15:23.805Z,100937.06
2022-08-05T11:18:25.304Z,100980.38
2022-08-05T11:20:52.344Z,100980.66
2022-08-05T11:24:04.296Z,100994.81
2022-08-05T11:26:28.190Z,101013.66
2022-08-05T11:28:58.731Z,101000.03
2022-08-05T11:31:58.660Z,101029.00
2022-08-05T11:34:35.997Z,101033.53
2022-08-05T11:37:02.915Z,101033.59
2022-08-05T11:39:55.218Z,101042.47
2022-08-05T11:42:24.083Z,101042.00
2022-08-05T11:45:02.126Z,101056.66
2022-08-05T11:47:49.985Z,101050.94
2022-08-05T11:50:17.523Z,101060.84
2022-08-05T11:52:45.953Z,101061.44
2022-08-05T11:55:15.691Z,101072.03
2022-08-05T11:58:09.498Z,101033.34
2022-08-05T12:00:38.527Z,101075.53
2022-08-05T12:03:29.218Z,101063.03
2022-08-05T12:06:05.958Z,101064.56
2022-08-05T12:08:49.989Z,101087.00
2022-08-05T12:11:20.694Z,101079.00
2022-08-05T12:13:54.537Z,101083.31
2022-08-05T12:16:28.828Z,101057.59
2022-08-05T12:18:55.585Z,101052.03
2022-08-05T12:21:30.284Z,101073.38
2022-08-05T12:24:04.908Z,101071.84
2022-08-05T12:26:35.128Z,101088.31
2022-08-05T12:29:03.344Z,101084.44
2022-08-05T12:31:43.664Z,101069.94
2022-08-05T12:34:21.188Z,101082.19
2022-08-05T12:36:49.837Z,101074.53
2022-08-05T12:39:16.541Z,101073.31
2022-08-05T12:41:43.954Z,101090.91
2022-08-05T12:44:14.527Z,101087.41
2022-08-05T12:46:56.738Z,101101.88
2022-08-05T12:49:25.654Z,101100.16
2022-08-05T12:52:23.862Z,101097.09
2022-08-05T12:54:55.762Z,101105.22
2022-08-05T12:57:23.431Z,101090.31
2022-08-05T13:01:57.647Z,101101.28
2022-08-05T13:02:40.846Z,101096.53
2022-08-05T13:05:12.651Z,101107.91
2022-08-05T13:08:00.011Z,101110.16
2022-08-05T13:10:31.063Z,101120.53
2022-08-05T13:12:58.499Z,101119.72
2022-08-05T13:15:41.941Z,101122.59
2022-08-05T13:18:18.870Z,101124.91
2022-08-05T13:20:47.665Z,101118.03
2022-08-05T13:23:16.308Z,101129.78
2022-08-05T13:25:52.133Z,101139.06
2022-08-05T13:28:26.608Z,101139.25
2022-08-05T13:30:53.619Z,101144.88
2022-08-05T13:34:22.548Z,101148.59
2022-08-05T13:36:09.380Z,101142.25
2022-08-05T13:38:42.115Z,101132.31
2022-08-05T13:41:09.853Z,101115.91
2022-08-05T13:43:45.377Z,101117.78
2022-08-05T13:46:50.866Z,101105.09
2022-08-05T13:49:10.044Z,101124.09
2022-08-05T13:51:41.098Z,101125.75
2022-08-05T13:54:12.972Z,101121.72
2022-08-05T13:56:45.371Z,101134.03
2022-08-05T13:59:19.958Z,101132.44
2022-08-05T14:01:58.261Z,101074.97
2022-08-05T14:04:29.201Z,101137.97
2022-08-05T14:06:58.628Z,101142.22
2022-08-05T14:09:46.088Z,101133.06
2022-08-05T14:12:18.254Z,101137.63
2022-08-05T14:14:59.573Z,101135.53
2022-08-05T14:17:26.155Z,101135.88
2022-08-05T14:20:01.023Z,101138.22
2022-08-05T14:22:34.390Z,101130.56
2022-08-05T14:25:01.444Z,101123.78
2022-08-05T14:27:28.335Z,101108.41
2022-08-05T14:29:57.436Z,101125.09
2022-08-05T14:32:26.787Z,101123.25
2022-08-05T14:34:56.917Z,101111.69
2022-08-05T14:37:45.243Z,101097.66
2022-08-05T14:40:14.156Z,101114.63
2022-08-05T14:42:43.690Z,101095.44
2022-08-05T14:45:10.694Z,101120.66
2022-08-05T14:48:02.724Z,101124.72
2022-08-05T14:50:25.614Z,101121.19
2022-08-05T14:52:57.568Z,101124.00
2022-08-05T14:55:25.873Z,101114.78
2022-08-05T14:57:56.497Z,101128.47
2022-08-05T15:00:27.929Z,101122.09
2022-08-05T15:02:55.483Z,101119.56
2022-08-05T15:05:29.675Z,101125.94
2022-08-05T15:08:05.510Z,101116.19
2022-08-05T15:10:39.083Z,101117.41
2022-08-05T15:13:09.847Z,101112.38
2022-08-05T15:15:55.222Z,101110.28
2022-08-05T15:18:23.136Z,101121.47
2022-08-05T15:20:49.980Z,101117.31
2022-08-05T15:23:19.316Z,101121.75
2022-08-05T15:25:52.362Z,101131.97
2022-08-05T15:28:27.289Z,101106.41
2022-08-05T15:30:55.222Z,101136.94
2022-08-05T15:34:04.738Z,101109.41
2022-08-05T15:36:17.557Z,101135.75
2022-08-05T15:41:03.539Z,101142.88
2022-08-05T15:41:58.234Z,101138.28
2022-08-05T15:44:26.106Z,101147.16
2022-08-05T15:46:54.322Z,101134.97
2022-08-05T15:49:40.839Z,101148.50
2022-08-05T15:52:13.213Z,101149.16
2022-08-05T15:54:57.139Z,101154.41
2022-08-05T15:57:24.137Z,101157.16
2022-08-05T15:59:56.693Z,101156.16
2022-08-05T16:02:25.403Z,101154.75
2022-08-05T16:04:52.339Z,101162.22
2022-08-05T16:07:19.327Z,101168.03
2022-08-05T16:09:49.533Z,101168.66
2022-08-05T16:12:19.810Z,101165.91
2022-08-05T16:14:46.769Z,101163.41
2022-08-05T16:17:13.372Z,101168.22
2022-08-05T16:20:05.131Z,101181.53
2022-08-05T16:22:27.689Z,101172.41
2022-08-05T16:25:00.931Z,101172.41
2022-08-05T16:28:00.179Z,101170.16
2022-08-05T16:30:26.678Z,101177.81
2022-08-05T16:32:55.762Z,101174.69
2022-08-05T16:35:27.972Z,101161.22
2022-08-05T16:38:03.315Z,101183.19
2022-08-05T16:40:51.858Z,101172.63
2022-08-05T16:43:25.054Z,101176.56
2022-08-05T16:46:07.557Z,101187.75
2022-08-05T16:48:39.368Z,101184.84
2022-08-05T16:51:09.203Z,101193.16
2022-08-05T16:54:04.214Z,101197.09
2022-08-05T16:56:24.685Z,101208.31
2022-08-05T16:58:52.755Z,101206.06
2022-08-05T17:01:20.420Z,101218.94
2022-08-05T17:03:47.440Z,101213.34
2022-08-05T17:06:16.348Z,101193.22
2022-08-05T17:08:53.231Z,101219.16
2022-08-05T17:11:23.459Z,101192.19
2022-08-05T17:14:00.223Z,101217.91
2022-08-05T17:16:36.446Z,101214.78
2022-08-05T17:19:07.105Z,101206.88
2022-08-05T17:21:36.871Z,101231.78
2022-08-05T17:24:08.112Z,101203.94
2022-08-05T17:26:47.367Z,101229.25
2022-08-05T17:29:15.841Z,101225.13
2022-08-05T17:31:58.363Z,101224.69
2022-08-05T17:34:29.990Z,101231.97
2022-08-05T17:36:59.513Z,101232.94
2022-08-05T17:39:29.846Z,101233.13
2022-08-05T17:42:18.568Z,101243.50
2022-08-05T17:44:50.557Z,101249.25
2022-08-05T17:47:18.258Z,101248.22
2022-08-05T17:49:52.055Z,101255.47
2022-08-05T17:52:30.487Z,101249.88
2022-08-05T17:57:24.561Z,101262.94
2022-08-05T18:00:04.948Z,101258.78
2022-08-05T18:02:32.458Z,101267.28
2022-08-05T18:04:59.245Z,101264.78
2022-08-05T18:07:32.823Z,101274.34
2022-08-05T18:10:10.411Z,101282.41
2022-08-05T18:12:37.508Z,101285.25
2022-08-05T18:15:06.930Z,101286.47
2022-08-05T18:18:00.903Z,101266.91
2022-08-05T18:20:29.503Z,101294.88
2022-08-05T18:22:58.242Z,101303.91
2022-08-05T18:25:32.945Z,101303.78
2022-08-05T18:28:01.674Z,101300.19
2022-08-05T18:30:33.349Z,101297.34
2022-08-05T18:33:01.243Z,101299.97
2022-08-05T18:35:49.752Z,101310.75
2022-08-05T18:38:18.928Z,101295.72
2022-08-05T18:41:57.289Z,101314.91
2022-08-05T18:43:38.236Z,101309.22
2022-08-05T18:46:10.878Z,101315.81
2022-08-05T18:48:41.773Z,101300.56
2022-08-05T18:52:02.937Z,101323.75
2022-08-05T18:53:55.621Z,101327.94
2022-08-05T18:56:25.212Z,101336.19
2022-08-05T18:58:54.721Z,101325.66
2022-08-05T19:01:33.407Z,101338.00
2022-08-05T19:04:14.551Z,101342.16
2022-08-05T19:06:50.871Z,101342.59
2022-08-05T19:09:17.460Z,101343.06
2022-08-05T19:12:00.152Z,101352.88
2022-08-05T19:14:37.911Z,101350.81
2022-08-05T19:17:16.646Z,101368.38
2022-08-05T19:19:47.102Z,101366.78
2022-08-05T19:22:17.162Z,101374.91
2022-08-05T19:24:54.546Z,101352.56
2022-08-05T19:27:23.738Z,101386.59
2022-08-05T19:29:50.513Z,101398.53
2022-08-05T19:32:18.834Z,101399.13
2022-08-05T19:34:54.913Z,101396.00
2022-08-05T19:37:22.215Z,101403.78
2022-08-05T19:39:56.979Z,101405.00
2022-08-05T19:42:35.383Z,101410.56
2022-08-05T19:45:06.077Z,101406.44
2022-08-05T19:47:34.809Z,101409.31
2022-08-05T19:50:06.202Z,101430.22
2022-08-05T19:52:34.649Z,101416.53
2022-08-05T19:55:07.210Z,101442.81
2022-08-05T19:58:14.488Z,101432.47
2022-08-05T20:00:36.055Z,101447.19
2022-08-05T20:03:08.674Z,101452.53
2022-08-05T20:05:43.324Z,101445.31
2022-08-05T20:08:17.263Z,101461.66
2022-08-05T20:10:43.857Z,101467.00
2022-08-05T20:13:10.495Z,101468.47
2022-08-05T20:15:51.996Z,101480.13
2022-08-05T20:18:33.272Z,101490.78
2022-08-05T20:21:02.657Z,101491.91
2022-08-05T20:23:40.122Z,101490.38
2022-08-05T20:26:18.746Z,101490.81
2022-08-05T20:28:45.770Z,101501.88
2022-08-05T20:31:12.405Z,101498.66
2022-08-05T20:33:42.309Z,101504.06
2022-08-05T20:36:10.092Z,101501.81
2022-08-05T20:38:37.785Z,101499.19
2022-08-05T20:41:08.308Z,101514.34
2022-08-05T20:44:00.478Z,101513.31
2022-08-05T20:46:25.541Z,101513.38
2022-08-05T20:48:53.613Z,101521.00
2022-08-05T20:51:21.480Z,101525.59
2022-08-05T20:53:56.460Z,101517.63
2022-08-05T20:56:27.677Z,101525.50
2022-08-05T20:59:00.060Z,101523.06
2022-08-05T21:01:38.941Z,101521.97
2022-08-05T21:04:07.168Z,101531.13
2022-08-05T21:06:36.629Z,101532.00
2022-08-05T21:09:04.917Z,101519.09
2022-08-05T21:12:06.832Z,101522.63
2022-08-05T21:14:19.351Z,101548.13
2022-08-05T21:16:45.923Z,101541.44
2022-08-05T21:19:13.939Z,101543.97
2022-08-05T21:21:44.506Z,101525.25
2022-08-05T21:24:19.629Z,101544.28
2022-08-05T21:26:57.899Z,101547.97
2022-08-05T21:29:26.443Z,101529.63
2022-08-05T21:31:58.263Z,101566.03
2022-08-05T21:34:26.230Z,101568.56
2022-08-05T21:36:55.055Z,101562.28
2022-08-05T21:39:27.034Z,101564.09
2022-08-05T21:42:01.134Z,101569.28
2022-08-05T21:44:28.430Z,101582.44
2022-08-05T21:46:55.640Z,101576.97
2022-08-05T21:49:58.721Z,101582.72
2022-08-05T21:52:22.082Z,101583.81
2022-08-05T21:54:55.325Z,101585.91
2022-08-05T21:57:42.408Z,101582.41
2022-08-05T22:00:11.260Z,101589.81
2022-08-05T22:02:42.742Z,101597.50
2022-08-05T22:05:12.252Z,101591.59
2022-08-05T22:07:59.046Z,101568.72
2022-08-05T22:10:27.629Z,101602.75
2022-08-05T22:12:55.409Z,101581.88
2022-08-05T22:16:04.734Z,101603.41
2022-08-05T22:18:12.080Z,101610.25
2022-08-05T22:20:44.150Z,101588.38
2022-08-05T22:23:17.109Z,101604.03
2022-08-05T22:26:09.976Z,101608.78
2022-08-05T22:28:34.797Z,101604.69
2022-08-05T22:31:05.314Z,101598.63
2022-08-05T22:33:56.860Z,101598.31
2022-08-05T22:36:24.061Z,101613.94
2022-08-05T22:38:52.116Z,101613.75
2022-08-05T22:42:04.299Z,101620.16
2022-08-05T22:44:08.188Z,101611.19
2022-08-05T22:46:39.592Z,101614.91
2022-08-05T22:49:07.945Z,101628.47
2022-08-05T22:52:05.317Z,101634.13
2022-08-05T22:54:27.765Z,101635.50
2022-08-05T22:56:54.434Z,101643.97
2022-08-05T22:59:45.279Z,101645.19
2022-08-05T23:02:08.769Z,101640.97
2022-08-05T23:04:36.179Z,101645.94
2022-08-05T23:07:05.838Z,101653.91
2022-08-05T23:09:57.555Z,101662.13
2022-08-05T23:12:20.483Z,101666.13
2022-08-05T23:14:50.885Z,101662.63
2022-08-05T23:17:23.939Z,101668.06
2022-08-05T23:19:56.161Z,101667.31
2022-08-05T23:22:27.541Z,101671.31
2022-08-05T23:24:55.161Z,101674.81
2022-08-05T23:27:22.672Z,101681.81
2022-08-05T23:29:50.797Z,101656.38
2022-08-05T23:32:22.731Z,101685.53
2022-08-05T23:34:49.849Z,101686.00
2022-08-05T23:37:17.473Z,101690.16
2022-08-05T23:39:54.151Z,101690.34
2022-08-05T23:42:23.436Z,101701.72
2022-08-05T23:44:55.778Z,101684.97
2022-08-05T23:47:22.370Z,101710.72
2022-08-05T23:49:52.098Z,101703.25
2022-08-05T23:52:18.978Z,101711.38
2022-08-05T23:54:47.096Z,101717.38
2022-08-05T23:57:15.164Z,101716.66
